sensor_id;sensor_type;location;lat;lon;timestamp;pressure;altitude;pressure_sealevel;temperature
68952;BMP180;56000;51.146;17.112;2023-05-27T00:00:29;101241.00;;;11.08
68952;BMP180;56000;51.146;17.112;2023-05-27T00:03:24;101238.20;;;11.00
68952;BMP180;56000;51.146;17.112;2023-05-27T00:05:57;101238.20;;;10.96
68952;BMP180;56000;51.146;17.112;2023-05-27T00:08:31;101240.80;;;10.90
68952;BMP180;56000;51.146;17.112;2023-05-27T00:11:04;101236.40;;;10.90
68952;BMP180;56000;51.146;17.112;2023-05-27T00:13:37;101240.40;;;10.80
68952;BMP180;56000;51.146;17.112;2023-05-27T00:16:10;101236.00;;;10.80
68952;BMP180;56000;51.146;17.112;2023-05-27T00:18:44;101232.20;;;10.70
68952;BMP180;56000;51.146;17.112;2023-05-27T00:21:17;101229.40;;;10.70
68952;BMP180;56000;51.146;17.112;2023-05-27T00:23:54;101230.00;;;10.70
68952;BMP180;56000;51.146;17.112;2023-05-27T00:26:29;101229.00;;;10.60
68952;BMP180;56000;51.146;17.112;2023-05-27T00:29:03;101234.80;;;10.60
68952;BMP180;56000;51.146;17.112;2023-05-27T00:31:36;101233.80;;;10.60
68952;BMP180;56000;51.146;17.112;2023-05-27T00:34:09;101233.80;;;10.56
68952;BMP180;56000;51.146;17.112;2023-05-27T00:36:42;101236.20;;;10.50
68952;BMP180;56000;51.146;17.112;2023-05-27T00:39:15;101238.40;;;10.46
68952;BMP180;56000;51.146;17.112;2023-05-27T00:41:51;101233.40;;;10.40
68952;BMP180;56000;51.146;17.112;2023-05-27T00:44:24;101240.40;;;10.40
68952;BMP180;56000;51.146;17.112;2023-05-27T00:46:57;101238.60;;;10.36
68952;BMP180;56000;51.146;17.112;2023-05-27T00:49:30;101234.40;;;10.30
68952;BMP180;56000;51.146;17.112;2023-05-27T00:52:04;101238.00;;;10.20
68952;BMP180;56000;51.146;17.112;2023-05-27T00:54:40;101239.80;;;10.20
68952;BMP180;56000;51.146;17.112;2023-05-27T00:57:13;101240.20;;;10.10
68952;BMP180;56000;51.146;17.112;2023-05-27T00:59:46;101242.20;;;10.10
68952;BMP180;56000;51.146;17.112;2023-05-27T01:02:19;101237.60;;;10.00
68952;BMP180;56000;51.146;17.112;2023-05-27T01:04:54;101241.60;;;10.00
68952;BMP180;56000;51.146;17.112;2023-05-27T01:07:33;101237.20;;;9.90
68952;BMP180;56000;51.146;17.112;2023-05-27T01:10:14;101231.80;;;9.90
68952;BMP180;56000;51.146;17.112;2023-05-27T01:12:58;101231.60;;;9.90
68952;BMP180;56000;51.146;17.112;2023-05-27T01:15:33;101227.80;;;9.86
68952;BMP180;56000;51.146;17.112;2023-05-27T01:18:08;101234.40;;;9.80
68952;BMP180;56000;51.146;17.112;2023-05-27T01:20:42;101229.20;;;9.80
68952;BMP180;56000;51.146;17.112;2023-05-27T01:23:17;101233.80;;;9.80
68952;BMP180;56000;51.146;17.112;2023-05-27T01:25:50;101228.00;;;9.80
68952;BMP180;56000;51.146;17.112;2023-05-27T01:28:23;101232.60;;;9.70
68952;BMP180;56000;51.146;17.112;2023-05-27T01:31:03;101232.60;;;9.70
68952;BMP180;56000;51.146;17.112;2023-05-27T01:33:40;101234.20;;;9.70
68952;BMP180;56000;51.146;17.112;2023-05-27T01:36:19;101235.20;;;9.60
68952;BMP180;56000;51.146;17.112;2023-05-27T01:38:54;101235.80;;;9.60
68952;BMP180;56000;51.146;17.112;2023-05-27T01:41:28;101238.20;;;9.58
68952;BMP180;56000;51.146;17.112;2023-05-27T01:44:02;101243.00;;;9.50
68952;BMP180;56000;51.146;17.112;2023-05-27T01:46:37;101247.80;;;9.50
68952;BMP180;56000;51.146;17.112;2023-05-27T01:49:10;101250.20;;;9.50
68952;BMP180;56000;51.146;17.112;2023-05-27T01:51:43;101242.20;;;9.40
68952;BMP180;56000;51.146;17.112;2023-05-27T01:54:17;101246.80;;;9.40
68952;BMP180;56000;51.146;17.112;2023-05-27T01:56:50;101247.00;;;9.30
68952;BMP180;56000;51.146;17.112;2023-05-27T01:59:23;101242.20;;;9.30
68952;BMP180;56000;51.146;17.112;2023-05-27T02:01:56;101240.80;;;9.20
68952;BMP180;56000;51.146;17.112;2023-05-27T02:04:29;101238.60;;;9.20
68952;BMP180;56000;51.146;17.112;2023-05-27T02:07:03;101234.80;;;9.10
68952;BMP180;56000;51.146;17.112;2023-05-27T02:09:37;101239.20;;;9.10
68952;BMP180;56000;51.146;17.112;2023-05-27T02:12:10;101238.60;;;9.10
68952;BMP180;56000;51.146;17.112;2023-05-27T02:14:43;101239.80;;;9.00
68952;BMP180;56000;51.146;17.112;2023-05-27T02:17:17;101238.40;;;9.00
68952;BMP180;56000;51.146;17.112;2023-05-27T02:19:50;101232.00;;;8.90
68952;BMP180;56000;51.146;17.112;2023-05-27T02:22:23;101235.00;;;8.90
68952;BMP180;56000;51.146;17.112;2023-05-27T02:24:56;101237.80;;;8.80
68952;BMP180;56000;51.146;17.112;2023-05-27T02:27:29;101238.60;;;8.80
68952;BMP180;56000;51.146;17.112;2023-05-27T02:30:04;101245.20;;;8.80
68952;BMP180;56000;51.146;17.112;2023-05-27T02:32:37;101247.80;;;8.78
68952;BMP180;56000;51.146;17.112;2023-05-27T02:35:14;101253.00;;;8.70
68952;BMP180;56000;51.146;17.112;2023-05-27T02:37:47;101254.20;;;8.70
68952;BMP180;56000;51.146;17.112;2023-05-27T02:40:28;101254.40;;;8.60
68952;BMP180;56000;51.146;17.112;2023-05-27T02:43:01;101251.60;;;8.60
68952;BMP180;56000;51.146;17.112;2023-05-27T02:45:34;101249.40;;;8.60
68952;BMP180;56000;51.146;17.112;2023-05-27T02:48:09;101253.40;;;8.50
68952;BMP180;56000;51.146;17.112;2023-05-27T02:50:42;101257.60;;;8.50
68952;BMP180;56000;51.146;17.112;2023-05-27T02:53:15;101254.00;;;8.50
68952;BMP180;56000;51.146;17.112;2023-05-27T02:55:49;101259.60;;;8.50
68952;BMP180;56000;51.146;17.112;2023-05-27T02:58:22;101253.40;;;8.50
68952;BMP180;56000;51.146;17.112;2023-05-27T03:00:55;101255.00;;;8.50
68952;BMP180;56000;51.146;17.112;2023-05-27T03:03:29;101254.20;;;8.50
68952;BMP180;56000;51.146;17.112;2023-05-27T03:06:02;101255.20;;;8.50
68952;BMP180;56000;51.146;17.112;2023-05-27T03:08:37;101259.60;;;8.42
68952;BMP180;56000;51.146;17.112;2023-05-27T03:11:10;101267.40;;;8.40
68952;BMP180;56000;51.146;17.112;2023-05-27T03:13:43;101271.20;;;8.40
68952;BMP180;56000;51.146;17.112;2023-05-27T03:16:18;101269.60;;;8.40
68952;BMP180;56000;51.146;17.112;2023-05-27T03:18:51;101274.00;;;8.40
68952;BMP180;56000;51.146;17.112;2023-05-27T03:21:24;101276.80;;;8.40
68952;BMP180;56000;51.146;17.112;2023-05-27T03:23:57;101267.00;;;8.40
68952;BMP180;56000;51.146;17.112;2023-05-27T03:26:30;101268.80;;;8.40
68952;BMP180;56000;51.146;17.112;2023-05-27T03:29:04;101269.40;;;8.40
68952;BMP180;56000;51.146;17.112;2023-05-27T03:31:38;101272.20;;;8.40
68952;BMP180;56000;51.146;17.112;2023-05-27T03:34:15;101273.60;;;8.40
68952;BMP180;56000;51.146;17.112;2023-05-27T03:36:48;101274.40;;;8.40
68952;BMP180;56000;51.146;17.112;2023-05-27T03:39:23;101277.20;;;8.48
68952;BMP180;56000;51.146;17.112;2023-05-27T03:41:59;101276.80;;;8.50
68952;BMP180;56000;51.146;17.112;2023-05-27T03:44:32;101278.00;;;8.50
68952;BMP180;56000;51.146;17.112;2023-05-27T03:47:06;101281.40;;;8.50
68952;BMP180;56000;51.146;17.112;2023-05-27T03:49:39;101286.80;;;8.56
68952;BMP180;56000;51.146;17.112;2023-05-27T03:52:12;101290.00;;;8.60
68952;BMP180;56000;51.146;17.112;2023-05-27T03:54:45;101296.40;;;8.62
68952;BMP180;56000;51.146;17.112;2023-05-27T03:57:19;101301.40;;;8.70
68952;BMP180;56000;51.146;17.112;2023-05-27T03:59:52;101294.40;;;8.80
68952;BMP180;56000;51.146;17.112;2023-05-27T04:02:25;101295.00;;;8.90
68952;BMP180;56000;51.146;17.112;2023-05-27T04:04:58;101307.00;;;9.00
68952;BMP180;56000;51.146;17.112;2023-05-27T04:07:32;101307.20;;;9.00
68952;BMP180;56000;51.146;17.112;2023-05-27T04:10:07;101310.40;;;9.08
68952;BMP180;56000;51.146;17.112;2023-05-27T04:12:41;101306.60;;;9.10
68952;BMP180;56000;51.146;17.112;2023-05-27T04:15:15;101306.80;;;9.20
68952;BMP180;56000;51.146;17.112;2023-05-27T04:17:48;101314.80;;;9.30
68952;BMP180;56000;51.146;17.112;2023-05-27T04:20:21;101317.60;;;9.40
68952;BMP180;56000;51.146;17.112;2023-05-27T04:22:57;101318.20;;;9.60
68952;BMP180;56000;51.146;17.112;2023-05-27T04:25:30;101314.60;;;9.90
68952;BMP180;56000;51.146;17.112;2023-05-27T04:28:10;101314.00;;;10.20
68952;BMP180;56000;51.146;17.112;2023-05-27T04:30:48;101313.60;;;10.30
68952;BMP180;56000;51.146;17.112;2023-05-27T04:33:45;101312.20;;;10.30
68952;BMP180;56000;51.146;17.112;2023-05-27T04:36:18;101314.80;;;10.40
68952;BMP180;56000;51.146;17.112;2023-05-27T04:39:16;101316.20;;;10.46
68952;BMP180;56000;51.146;17.112;2023-05-27T04:41:50;101311.80;;;10.50
68952;BMP180;56000;51.146;17.112;2023-05-27T04:44:35;101313.40;;;10.62
68952;BMP180;56000;51.146;17.112;2023-05-27T04:47:08;101315.40;;;11.00
68952;BMP180;56000;51.146;17.112;2023-05-27T04:49:42;101313.40;;;11.30
68952;BMP180;56000;51.146;17.112;2023-05-27T04:52:18;101317.80;;;11.62
68952;BMP180;56000;51.146;17.112;2023-05-27T04:54:53;101317.60;;;11.76
68952;BMP180;56000;51.146;17.112;2023-05-27T04:57:40;101319.00;;;11.90
68952;BMP180;56000;51.146;17.112;2023-05-27T05:00:17;101320.00;;;12.00
68952;BMP180;56000;51.146;17.112;2023-05-27T05:03:07;101317.20;;;12.00
68952;BMP180;56000;51.146;17.112;2023-05-27T05:05:42;101319.40;;;12.00
68952;BMP180;56000;51.146;17.112;2023-05-27T05:08:16;101316.80;;;12.00
68952;BMP180;56000;51.146;17.112;2023-05-27T05:10:52;101321.20;;;12.00
68952;BMP180;56000;51.146;17.112;2023-05-27T05:13:26;101324.60;;;12.00
68952;BMP180;56000;51.146;17.112;2023-05-27T05:16:00;101325.60;;;12.10
68952;BMP180;56000;51.146;17.112;2023-05-27T05:18:34;101319.40;;;12.10
68952;BMP180;56000;51.146;17.112;2023-05-27T05:21:07;101321.40;;;12.20
68952;BMP180;56000;51.146;17.112;2023-05-27T05:23:43;101321.20;;;12.20
68952;BMP180;56000;51.146;17.112;2023-05-27T05:26:17;101311.80;;;12.36
68952;BMP180;56000;51.146;17.112;2023-05-27T05:28:50;101314.00;;;12.50
68952;BMP180;56000;51.146;17.112;2023-05-27T05:31:23;101320.20;;;12.60
68952;BMP180;56000;51.146;17.112;2023-05-27T05:33:58;101318.60;;;12.80
68952;BMP180;56000;51.146;17.112;2023-05-27T05:36:33;101321.80;;;12.94
68952;BMP180;56000;51.146;17.112;2023-05-27T05:39:10;101316.00;;;13.06
68952;BMP180;56000;51.146;17.112;2023-05-27T05:41:46;101319.60;;;13.20
68952;BMP180;56000;51.146;17.112;2023-05-27T05:44:22;101325.60;;;13.40
68952;BMP180;56000;51.146;17.112;2023-05-27T05:46:56;101328.80;;;13.46
68952;BMP180;56000;51.146;17.112;2023-05-27T05:49:30;101326.40;;;13.60
68952;BMP180;56000;51.146;17.112;2023-05-27T05:52:03;101328.00;;;13.80
68952;BMP180;56000;51.146;17.112;2023-05-27T05:54:37;101326.60;;;13.90
68952;BMP180;56000;51.146;17.112;2023-05-27T05:57:10;101331.00;;;14.00
68952;BMP180;56000;51.146;17.112;2023-05-27T05:59:44;101327.00;;;14.16
68952;BMP180;56000;51.146;17.112;2023-05-27T06:02:17;101325.80;;;14.30
68952;BMP180;56000;51.146;17.112;2023-05-27T06:04:51;101328.00;;;14.40
68952;BMP180;56000;51.146;17.112;2023-05-27T06:07:25;101329.80;;;14.50
68952;BMP180;56000;51.146;17.112;2023-05-27T06:10:09;101325.40;;;14.56
68952;BMP180;56000;51.146;17.112;2023-05-27T06:12:46;101328.80;;;14.50
68952;BMP180;56000;51.146;17.112;2023-05-27T06:15:19;101331.40;;;14.50
68952;BMP180;56000;51.146;17.112;2023-05-27T06:17:54;101331.60;;;14.60
68952;BMP180;56000;51.146;17.112;2023-05-27T06:20:27;101330.80;;;14.60
68952;BMP180;56000;51.146;17.112;2023-05-27T06:23:01;101330.00;;;14.60
68952;BMP180;56000;51.146;17.112;2023-05-27T06:25:53;101329.60;;;14.70
68952;BMP180;56000;51.146;17.112;2023-05-27T06:28:27;101333.40;;;14.80
68952;BMP180;56000;51.146;17.112;2023-05-27T06:31:00;101329.60;;;15.00
68952;BMP180;56000;51.146;17.112;2023-05-27T06:33:34;101334.40;;;15.10
68952;BMP180;56000;51.146;17.112;2023-05-27T06:36:07;101326.40;;;15.20
68952;BMP180;56000;51.146;17.112;2023-05-27T06:38:41;101327.40;;;15.40
68952;BMP180;56000;51.146;17.112;2023-05-27T06:41:15;101330.20;;;15.50
68952;BMP180;56000;51.146;17.112;2023-05-27T06:43:55;101329.80;;;15.60
68952;BMP180;56000;51.146;17.112;2023-05-27T06:46:44;101330.40;;;15.70
68952;BMP180;56000;51.146;17.112;2023-05-27T06:49:27;101329.80;;;15.80
68952;BMP180;56000;51.146;17.112;2023-05-27T06:52:00;101327.80;;;15.80
68952;BMP180;56000;51.146;17.112;2023-05-27T06:54:35;101332.20;;;15.86
68952;BMP180;56000;51.146;17.112;2023-05-27T06:57:46;101333.80;;;16.00
68952;BMP180;56000;51.146;17.112;2023-05-27T07:00:25;101339.40;;;16.10
68952;BMP180;56000;51.146;17.112;2023-05-27T07:03:18;101341.40;;;16.22
68952;BMP180;56000;51.146;17.112;2023-05-27T07:05:51;101336.40;;;16.30
68952;BMP180;56000;51.146;17.112;2023-05-27T07:08:25;101337.00;;;16.40
68952;BMP180;56000;51.146;17.112;2023-05-27T07:11:18;101333.80;;;16.50
68952;BMP180;56000;51.146;17.112;2023-05-27T07:13:52;101328.80;;;16.60
68952;BMP180;56000;51.146;17.112;2023-05-27T07:16:28;101333.80;;;16.80
68952;BMP180;56000;51.146;17.112;2023-05-27T07:19:01;101328.00;;;16.98
68952;BMP180;56000;51.146;17.112;2023-05-27T07:21:37;101336.40;;;17.10
68952;BMP180;56000;51.146;17.112;2023-05-27T07:24:15;101335.40;;;17.20
68952;BMP180;56000;51.146;17.112;2023-05-27T07:26:49;101331.60;;;17.20
68952;BMP180;56000;51.146;17.112;2023-05-27T07:29:22;101329.40;;;17.40
68952;BMP180;56000;51.146;17.112;2023-05-27T07:31:56;101323.20;;;17.50
68952;BMP180;56000;51.146;17.112;2023-05-27T07:34:32;101320.20;;;17.50
68952;BMP180;56000;51.146;17.112;2023-05-27T07:37:05;101329.60;;;17.50
68952;BMP180;56000;51.146;17.112;2023-05-27T07:39:39;101323.20;;;17.50
68952;BMP180;56000;51.146;17.112;2023-05-27T07:42:12;101324.40;;;17.50
68952;BMP180;56000;51.146;17.112;2023-05-27T07:44:46;101325.00;;;17.60
68952;BMP180;56000;51.146;17.112;2023-05-27T07:47:19;101317.60;;;17.68
68952;BMP180;56000;51.146;17.112;2023-05-27T07:49:52;101318.20;;;17.78
68952;BMP180;56000;51.146;17.112;2023-05-27T07:52:42;101317.00;;;18.00
68952;BMP180;56000;51.146;17.112;2023-05-27T07:55:29;101316.40;;;18.00
68952;BMP180;56000;51.146;17.112;2023-05-27T07:58:02;101315.20;;;18.10
68952;BMP180;56000;51.146;17.112;2023-05-27T08:00:46;101311.60;;;18.30
68952;BMP180;56000;51.146;17.112;2023-05-27T08:03:20;101311.80;;;18.50
68952;BMP180;56000;51.146;17.112;2023-05-27T08:06:10;101309.80;;;18.60
68952;BMP180;56000;51.146;17.112;2023-05-27T08:08:47;101303.20;;;18.76
68952;BMP180;56000;51.146;17.112;2023-05-27T08:11:43;101302.80;;;19.00
68952;BMP180;56000;51.146;17.112;2023-05-27T08:14:35;101304.00;;;19.18
68952;BMP180;56000;51.146;17.112;2023-05-27T08:17:34;101304.00;;;19.30
68952;BMP180;56000;51.146;17.112;2023-05-27T08:20:27;101302.80;;;19.30
68952;BMP180;56000;51.146;17.112;2023-05-27T08:23:00;101297.80;;;19.18
68952;BMP180;56000;51.146;17.112;2023-05-27T08:25:54;101304.20;;;19.20
68952;BMP180;56000;51.146;17.112;2023-05-27T08:28:36;101303.40;;;19.26
68952;BMP180;56000;51.146;17.112;2023-05-27T08:31:38;101302.00;;;19.50
68952;BMP180;56000;51.146;17.112;2023-05-27T08:34:12;101303.20;;;19.60
68952;BMP180;56000;51.146;17.112;2023-05-27T08:36:45;101302.00;;;19.78
68952;BMP180;56000;51.146;17.112;2023-05-27T08:39:19;101301.00;;;19.90
68952;BMP180;56000;51.146;17.112;2023-05-27T08:42:22;101295.60;;;20.20
68952;BMP180;56000;51.146;17.112;2023-05-27T08:44:55;101297.60;;;20.40
68952;BMP180;56000;51.146;17.112;2023-05-27T08:47:29;101294.40;;;20.48
68952;BMP180;56000;51.146;17.112;2023-05-27T08:50:03;101292.60;;;20.40
68952;BMP180;56000;51.146;17.112;2023-05-27T08:52:40;101292.60;;;20.58
68952;BMP180;56000;51.146;17.112;2023-05-27T08:55:17;101286.40;;;20.70
68952;BMP180;56000;51.146;17.112;2023-05-27T08:57:56;101284.80;;;20.90
68952;BMP180;56000;51.146;17.112;2023-05-27T09:00:32;101278.20;;;21.16
68952;BMP180;56000;51.146;17.112;2023-05-27T09:03:17;101279.40;;;21.56
68952;BMP180;56000;51.146;17.112;2023-05-27T09:05:51;101283.00;;;21.90
68952;BMP180;56000;51.146;17.112;2023-05-27T09:08:25;101287.40;;;22.16
68952;BMP180;56000;51.146;17.112;2023-05-27T09:11:25;101287.20;;;22.60
68952;BMP180;56000;51.146;17.112;2023-05-27T09:14:00;101291.00;;;22.80
68952;BMP180;56000;51.146;17.112;2023-05-27T09:16:33;101286.40;;;22.90
68952;BMP180;56000;51.146;17.112;2023-05-27T09:19:16;101283.00;;;23.10
68952;BMP180;56000;51.146;17.112;2023-05-27T09:21:50;101284.60;;;23.46
68952;BMP180;56000;51.146;17.112;2023-05-27T09:24:25;101280.60;;;23.54
68952;BMP180;56000;51.146;17.112;2023-05-27T09:26:59;101280.60;;;23.70
68952;BMP180;56000;51.146;17.112;2023-05-27T09:29:37;101277.60;;;23.44
68952;BMP180;56000;51.146;17.112;2023-05-27T09:32:10;101274.20;;;23.60
68952;BMP180;56000;51.146;17.112;2023-05-27T09:34:47;101276.80;;;23.80
68952;BMP180;56000;51.146;17.112;2023-05-27T09:37:23;101272.60;;;24.20
68952;BMP180;56000;51.146;17.112;2023-05-27T09:39:57;101272.80;;;24.40
68952;BMP180;56000;51.146;17.112;2023-05-27T09:42:40;101261.00;;;24.60
68952;BMP180;56000;51.146;17.112;2023-05-27T09:45:16;101263.00;;;25.00
68952;BMP180;56000;51.146;17.112;2023-05-27T09:47:52;101265.80;;;25.10
68952;BMP180;56000;51.146;17.112;2023-05-27T09:50:27;101261.20;;;25.34
68952;BMP180;56000;51.146;17.112;2023-05-27T09:53:01;101265.20;;;25.66
68952;BMP180;56000;51.146;17.112;2023-05-27T09:55:42;101262.00;;;26.10
68952;BMP180;56000;51.146;17.112;2023-05-27T09:58:16;101265.60;;;26.12
68952;BMP180;56000;51.146;17.112;2023-05-27T10:00:50;101262.80;;;25.90
68952;BMP180;56000;51.146;17.112;2023-05-27T10:03:25;101262.00;;;25.48
68952;BMP180;56000;51.146;17.112;2023-05-27T10:06:00;101258.00;;;25.64
68952;BMP180;56000;51.146;17.112;2023-05-27T10:08:34;101259.00;;;25.88
68952;BMP180;56000;51.146;17.112;2023-05-27T10:11:07;101263.00;;;26.08
68952;BMP180;56000;51.146;17.112;2023-05-27T10:13:42;101258.80;;;26.40
68952;BMP180;56000;51.146;17.112;2023-05-27T10:16:25;101257.40;;;26.72
68952;BMP180;56000;51.146;17.112;2023-05-27T10:19:00;101258.60;;;27.20
68952;BMP180;56000;51.146;17.112;2023-05-27T10:21:33;101256.00;;;27.50
68952;BMP180;56000;51.146;17.112;2023-05-27T10:24:11;101252.40;;;27.70
68952;BMP180;56000;51.146;17.112;2023-05-27T10:26:46;101248.20;;;27.90
68952;BMP180;56000;51.146;17.112;2023-05-27T10:29:20;101249.00;;;28.36
68952;BMP180;56000;51.146;17.112;2023-05-27T10:31:53;101244.60;;;28.86
68952;BMP180;56000;51.146;17.112;2023-05-27T10:34:36;101242.00;;;29.40
68952;BMP180;56000;51.146;17.112;2023-05-27T10:37:09;101238.60;;;29.88
68952;BMP180;56000;51.146;17.112;2023-05-27T10:39:43;101234.80;;;30.16
68952;BMP180;56000;51.146;17.112;2023-05-27T10:42:25;101232.80;;;30.26
68952;BMP180;56000;51.146;17.112;2023-05-27T10:45:08;101230.40;;;30.30
68952;BMP180;56000;51.146;17.112;2023-05-27T10:47:47;101233.00;;;30.60
68952;BMP180;56000;51.146;17.112;2023-05-27T10:50:30;101235.60;;;30.80
68952;BMP180;56000;51.146;17.112;2023-05-27T10:53:06;101233.20;;;30.90
68952;BMP180;56000;51.146;17.112;2023-05-27T10:55:40;101234.40;;;30.86
68952;BMP180;56000;51.146;17.112;2023-05-27T10:58:13;101233.80;;;31.32
68952;BMP180;56000;51.146;17.112;2023-05-27T11:00:50;101233.60;;;31.80
68952;BMP180;56000;51.146;17.112;2023-05-27T11:03:25;101234.40;;;31.78
68952;BMP180;56000;51.146;17.112;2023-05-27T11:06:03;101233.00;;;31.70
68952;BMP180;56000;51.146;17.112;2023-05-27T11:08:37;101232.60;;;32.14
68952;BMP180;56000;51.146;17.112;2023-05-27T11:11:11;101237.20;;;32.82
68952;BMP180;56000;51.146;17.112;2023-05-27T11:13:46;101237.00;;;33.20
68952;BMP180;56000;51.146;17.112;2023-05-27T11:16:20;101230.20;;;33.60
68952;BMP180;56000;51.146;17.112;2023-05-27T11:18:53;101228.20;;;33.90
68952;BMP180;56000;51.146;17.112;2023-05-27T11:21:26;101222.40;;;33.30
68952;BMP180;56000;51.146;17.112;2023-05-27T11:23:59;101224.40;;;33.56
68952;BMP180;56000;51.146;17.112;2023-05-27T11:26:32;101229.60;;;33.80
68952;BMP180;56000;51.146;17.112;2023-05-27T11:29:05;101229.60;;;33.70
68952;BMP180;56000;51.146;17.112;2023-05-27T11:31:39;101230.00;;;34.00
68952;BMP180;56000;51.146;17.112;2023-05-27T11:34:16;101236.00;;;34.20
68952;BMP180;56000;51.146;17.112;2023-05-27T11:36:52;101224.40;;;34.40
68952;BMP180;56000;51.146;17.112;2023-05-27T11:39:25;101226.80;;;34.78
68952;BMP180;56000;51.146;17.112;2023-05-27T11:41:59;101222.40;;;35.40
68952;BMP180;56000;51.146;17.112;2023-05-27T11:44:32;101218.80;;;35.76
68952;BMP180;56000;51.146;17.112;2023-05-27T11:47:05;101219.80;;;36.08
68952;BMP180;56000;51.146;17.112;2023-05-27T11:49:39;101216.80;;;36.00
68952;BMP180;56000;51.146;17.112;2023-05-27T11:52:13;101221.40;;;36.24
68952;BMP180;56000;51.146;17.112;2023-05-27T11:54:50;101220.40;;;36.50
68952;BMP180;56000;51.146;17.112;2023-05-27T11:57:29;101217.20;;;36.66
68952;BMP180;56000;51.146;17.112;2023-05-27T12:00:02;101218.60;;;36.46
68952;BMP180;56000;51.146;17.112;2023-05-27T12:02:39;101211.40;;;35.84
68952;BMP180;56000;51.146;17.112;2023-05-27T12:05:14;101207.80;;;35.40
68952;BMP180;56000;51.146;17.112;2023-05-27T12:08:04;101202.80;;;35.32
68952;BMP180;56000;51.146;17.112;2023-05-27T12:10:37;101203.80;;;35.54
68952;BMP180;56000;51.146;17.112;2023-05-27T12:13:10;101204.60;;;36.12
68952;BMP180;56000;51.146;17.112;2023-05-27T12:15:43;101193.60;;;36.62
68952;BMP180;56000;51.146;17.112;2023-05-27T12:18:16;101199.40;;;36.92
68952;BMP180;56000;51.146;17.112;2023-05-27T12:20:50;101193.40;;;37.00
68952;BMP180;56000;51.146;17.112;2023-05-27T12:23:23;101200.00;;;37.30
68952;BMP180;56000;51.146;17.112;2023-05-27T12:25:56;101195.00;;;37.40
68952;BMP180;56000;51.146;17.112;2023-05-27T12:28:29;101201.40;;;37.50
68952;BMP180;56000;51.146;17.112;2023-05-27T12:31:03;101185.40;;;37.80
68952;BMP180;56000;51.146;17.112;2023-05-27T12:33:36;101198.00;;;37.46
68952;BMP180;56000;51.146;17.112;2023-05-27T12:36:09;101194.40;;;37.40
68952;BMP180;56000;51.146;17.112;2023-05-27T12:38:43;101197.00;;;37.36
68952;BMP180;56000;51.146;17.112;2023-05-27T12:41:16;101198.00;;;37.60
68952;BMP180;56000;51.146;17.112;2023-05-27T12:43:50;101196.60;;;37.80
68952;BMP180;56000;51.146;17.112;2023-05-27T12:46:23;101195.00;;;37.94
68952;BMP180;56000;51.146;17.112;2023-05-27T12:48:56;101191.20;;;38.00
68952;BMP180;56000;51.146;17.112;2023-05-27T12:51:29;101191.20;;;38.20
68952;BMP180;56000;51.146;17.112;2023-05-27T12:54:04;101192.40;;;38.40
68952;BMP180;56000;51.146;17.112;2023-05-27T12:56:37;101183.80;;;37.86
68952;BMP180;56000;51.146;17.112;2023-05-27T12:59:10;101185.20;;;37.70
68952;BMP180;56000;51.146;17.112;2023-05-27T13:01:44;101180.60;;;37.90
68952;BMP180;56000;51.146;17.112;2023-05-27T13:04:17;101176.60;;;37.76
68952;BMP180;56000;51.146;17.112;2023-05-27T13:06:50;101177.60;;;36.96
68952;BMP180;56000;51.146;17.112;2023-05-27T13:09:23;101176.40;;;36.20
68952;BMP180;56000;51.146;17.112;2023-05-27T13:11:56;101178.00;;;36.56
68952;BMP180;56000;51.146;17.112;2023-05-27T13:14:29;101175.00;;;37.10
68952;BMP180;56000;51.146;17.112;2023-05-27T13:17:03;101176.40;;;37.12
68952;BMP180;56000;51.146;17.112;2023-05-27T13:19:38;101168.00;;;37.00
68952;BMP180;56000;51.146;17.112;2023-05-27T13:22:11;101164.20;;;37.34
68952;BMP180;56000;51.146;17.112;2023-05-27T13:24:45;101167.00;;;37.60
68952;BMP180;56000;51.146;17.112;2023-05-27T13:27:19;101163.60;;;37.90
68952;BMP180;56000;51.146;17.112;2023-05-27T13:29:52;101163.60;;;38.00
68952;BMP180;56000;51.146;17.112;2023-05-27T13:32:25;101159.60;;;37.96
68952;BMP180;56000;51.146;17.112;2023-05-27T13:34:58;101159.60;;;37.82
68952;BMP180;56000;51.146;17.112;2023-05-27T13:37:32;101156.40;;;37.80
68952;BMP180;56000;51.146;17.112;2023-05-27T13:40:07;101151.60;;;38.00
68952;BMP180;56000;51.146;17.112;2023-05-27T13:42:40;101153.60;;;37.96
68952;BMP180;56000;51.146;17.112;2023-05-27T13:45:13;101148.80;;;37.08
68952;BMP180;56000;51.146;17.112;2023-05-27T13:47:47;101140.60;;;36.48
68952;BMP180;56000;51.146;17.112;2023-05-27T13:50:22;101140.60;;;36.40
68952;BMP180;56000;51.146;17.112;2023-05-27T13:52:56;101135.40;;;36.50
68952;BMP180;56000;51.146;17.112;2023-05-27T13:55:29;101136.40;;;35.50
68952;BMP180;56000;51.146;17.112;2023-05-27T13:58:03;101130.00;;;35.24
68952;BMP180;56000;51.146;17.112;2023-05-27T14:00:36;101128.40;;;35.80
68952;BMP180;56000;51.146;17.112;2023-05-27T14:03:09;101126.20;;;36.22
68952;BMP180;56000;51.146;17.112;2023-05-27T14:05:42;101125.80;;;36.40
68952;BMP180;56000;51.146;17.112;2023-05-27T14:08:15;101121.00;;;36.70
68952;BMP180;56000;51.146;17.112;2023-05-27T14:10:49;101118.40;;;37.02
68952;BMP180;56000;51.146;17.112;2023-05-27T14:13:22;101117.80;;;37.64
68952;BMP180;56000;51.146;17.112;2023-05-27T14:15:56;101126.40;;;37.90
68952;BMP180;56000;51.146;17.112;2023-05-27T14:18:29;101116.80;;;37.16
68952;BMP180;56000;51.146;17.112;2023-05-27T14:21:02;101110.20;;;36.70
68952;BMP180;56000;51.146;17.112;2023-05-27T14:23:35;101106.60;;;36.70
68952;BMP180;56000;51.146;17.112;2023-05-27T14:26:09;101110.40;;;37.04
68952;BMP180;56000;51.146;17.112;2023-05-27T14:28:42;101109.00;;;37.30
68952;BMP180;56000;51.146;17.112;2023-05-27T14:31:15;101103.00;;;37.00
68952;BMP180;56000;51.146;17.112;2023-05-27T14:33:48;101111.00;;;37.02